Time;durP1;ratioP1;P1;durP2;ratioP2;P2;SDS_P1;SDS_P2;PMS_P1;PMS_P2;Temp;Humidity;BMP_temperature;BMP_pressure;BME280_temperature;BME280_humidity;BME280_pressure;Samples;Min_cycle;Max_cycle;Signal;HPM_P1;HPM_P2
2021/12/07 00:00:35;;;;;;;5.88;3.95;;;1.90;95.60;;;;;;2050126;28;20027;-95
2021/12/07 00:01:37;;;;;;;5.97;4.00;;;1.90;95.60;;;;;;2057148;28;20073;-96
2021/12/07 00:02:38;;;;;;;5.57;3.88;;;1.90;95.60;;;;;;2057598;28;20038;-96
2021/12/07 00:03:39;;;;;;;5.93;3.92;;;1.90;95.70;;;;;;2065775;28;20026;-96
2021/12/07 00:04:41;;;;;;;6.28;4.03;;;1.80;95.60;;;;;;2065601;28;20038;-96
2021/12/07 00:05:42;;;;;;;6.50;4.38;;;1.90;95.70;;;;;;2058172;28;20047;-96
2021/12/07 00:06:43;;;;;;;5.80;3.83;;;1.90;95.70;;;;;;2050592;28;20438;-96
2021/12/07 00:07:44;;;;;;;5.50;3.67;;;1.90;95.70;;;;;;2058546;28;20031;-94
2021/12/07 00:08:45;;;;;;;6.25;4.28;;;1.90;95.70;;;;;;2079477;28;20032;-96
2021/12/07 00:09:49;;;;;;;5.88;4.07;;;1.90;95.70;;;;;;2072578;28;20102;-96
2021/12/07 00:10:51;;;;;;;6.03;4.07;;;1.90;95.70;;;;;;2058903;28;20031;-96
2021/12/07 00:11:52;;;;;;;5.80;4.05;;;1.90;95.70;;;;;;2061234;28;20550;-95
2021/12/07 00:12:53;;;;;;;6.00;3.80;;;1.90;95.70;;;;;;2068839;28;20492;-90
2021/12/07 00:13:56;;;;;;;5.82;3.88;;;1.90;95.70;;;;;;2078427;28;20006;-88
2021/12/07 00:15:01;;;;;;;5.63;3.85;;;1.90;95.70;;;;;;2076179;28;20034;-89
2021/12/07 00:16:05;;;;;;;5.80;4.00;;;1.90;95.70;;;;;;2067931;28;20030;-96
2021/12/07 00:17:06;;;;;;;5.57;3.42;;;1.90;95.70;;;;;;2077495;28;20082;-88
2021/12/07 00:18:07;;;;;;;6.85;4.20;;;2.00;95.70;;;;;;2064536;28;20007;-95
2021/12/07 00:19:09;;;;;;;6.05;4.10;;;1.90;95.60;;;;;;2044867;29;20024;-90
2021/12/07 00:20:17;;;;;;;5.85;3.70;;;1.90;95.70;;;;;;2063121;28;20018;-96
2021/12/07 00:21:19;;;;;;;5.88;4.00;;;1.90;95.70;;;;;;2074105;28;20029;-96
2021/12/07 00:22:20;;;;;;;6.05;4.03;;;1.90;95.70;;;;;;2068654;28;20034;-96
2021/12/07 00:23:21;;;;;;;6.13;3.95;;;1.90;95.70;;;;;;2059999;28;20489;-96
2021/12/07 00:24:21;;;;;;;6.03;3.92;;;1.90;95.70;;;;;;2038567;28;20040;-96
2021/12/07 00:25:23;;;;;;;5.40;3.50;;;1.90;95.70;;;;;;2043688;28;20044;-96
2021/12/07 00:26:24;;;;;;;5.97;3.70;;;1.90;95.70;;;;;;2066992;28;20117;-96
2021/12/07 00:27:25;;;;;;;5.75;3.70;;;1.90;95.70;;;;;;2071402;28;20429;-96
2021/12/07 00:28:26;;;;;;;5.90;3.80;;;1.90;95.70;;;;;;2050339;28;20020;-96
2021/12/07 00:29:28;;;;;;;5.25;3.65;;;1.90;95.70;;;;;;2058606;28;20117;-96
2021/12/07 00:30:32;;;;;;;5.70;3.50;;;1.90;95.70;;;;;;2055789;28;20059;-95
2021/12/07 00:31:41;;;;;;;6.03;3.88;;;1.90;95.70;;;;;;2058528;28;20038;-96
2021/12/07 00:32:48;;;;;;;5.35;3.70;;;1.90;95.70;;;;;;2059120;28;20031;-96
2021/12/07 00:34:09;;;;;;;5.88;3.60;;;1.90;95.70;;;;;;2059364;28;20138;-96
2021/12/07 00:36:16;;;;;;;5.25;3.40;;;1.90;95.70;;;;;;2073802;28;20034;-96
2021/12/07 00:37:16;;;;;;;5.22;3.33;;;1.90;95.70;;;;;;2081702;28;20033;-96
2021/12/07 00:38:20;;;;;;;5.35;3.40;;;1.90;95.70;;;;;;2059152;28;20161;-96
2021/12/07 00:39:22;;;;;;;5.47;3.58;;;1.90;95.70;;;;;;2060262;28;20027;-96
2021/12/07 00:40:25;;;;;;;5.68;3.83;;;1.90;95.70;;;;;;2082129;28;20028;-96
2021/12/07 00:41:25;;;;;;;5.88;3.80;;;1.90;95.70;;;;;;2074694;28;20034;-96
2021/12/07 00:42:26;;;;;;;6.45;3.50;;;1.90;95.90;;;;;;2065845;28;20089;-93
2021/12/07 00:43:29;;;;;;;5.40;3.50;;;1.90;95.70;;;;;;2066031;28;20506;-95
2021/12/07 00:44:29;;;;;;;5.50;3.40;;;1.90;95.70;;;;;;2068262;28;20483;-95
2021/12/07 00:45:32;;;;;;;4.90;3.38;;;1.90;95.70;;;;;;2058535;28;20027;-95
2021/12/07 00:46:34;;;;;;;5.13;3.22;;;1.90;95.70;;;;;;2065144;28;20030;-95
2021/12/07 00:47:35;;;;;;;5.50;3.35;;;1.90;95.80;;;;;;2058744;28;20023;-95
2021/12/07 00:48:36;;;;;;;5.05;3.20;;;1.90;95.80;;;;;;2057132;28;20023;-96
2021/12/07 00:49:37;;;;;;;5.53;3.40;;;1.90;95.80;;;;;;2057967;28;20049;-94
2021/12/07 00:50:40;;;;;;;5.43;3.50;;;1.90;95.80;;;;;;2048810;28;20031;-96
2021/12/07 00:51:40;;;;;;;5.30;3.45;;;1.90;95.80;;;;;;2062465;28;20026;-95
2021/12/07 00:52:41;;;;;;;5.50;3.50;;;1.90;95.80;;;;;;2068487;28;20499;-95
2021/12/07 00:53:42;;;;;;;5.20;3.50;;;2.00;95.80;;;;;;2072288;28;20528;-94
2021/12/07 00:54:43;;;;;;;6.15;3.80;;;2.00;95.80;;;;;;2068094;28;20030;-94
2021/12/07 00:55:50;;;;;;;6.20;3.67;;;2.00;95.80;;;;;;2072557;28;20113;-93
2021/12/07 00:56:50;;;;;;;6.00;4.00;;;2.00;95.80;;;;;;2075884;28;20080;-93
2021/12/07 00:57:54;;;;;;;6.05;3.88;;;2.00;95.80;;;;;;2065975;28;20087;-94
2021/12/07 00:58:55;;;;;;;5.70;3.80;;;2.00;95.80;;;;;;2067338;28;20019;-96
2021/12/07 00:59:55;;;;;;;6.50;4.30;;;2.00;95.80;;;;;;2065295;28;20095;-95
2021/12/07 01:01:01;;;;;;;5.70;3.65;;;2.00;95.80;;;;;;2048958;29;20035;-95
2021/12/07 01:02:03;;;;;;;5.78;3.75;;;2.00;95.80;;;;;;2052258;28;20527;-96
2021/12/07 01:03:03;;;;;;;6.32;4.22;;;2.00;95.80;;;;;;2075716;28;20030;-95
2021/12/07 01:04:05;;;;;;;6.32;4.15;;;2.00;95.80;;;;;;2070774;28;20110;-95
2021/12/07 01:05:14;;;;;;;6.10;4.10;;;2.00;95.80;;;;;;2060553;28;20047;-95
2021/12/07 01:06:24;;;;;;;5.60;3.72;;;2.00;95.80;;;;;;2052547;28;20118;-94
2021/12/07 01:08:19;;;;;;;6.40;4.10;;;2.00;95.80;;;;;;2057942;28;20394;-93
2021/12/07 01:24:42;;;;;;;6.00;3.97;;;1.90;95.80;;;;;;2077712;28;20486;-95
2021/12/07 01:25:42;;;;;;;6.00;4.13;;;1.90;95.80;;;;;;2079654;28;20033;-94
2021/12/07 01:26:45;;;;;;;6.30;4.40;;;1.90;95.90;;;;;;2081783;28;20065;-94
2021/12/07 01:27:49;;;;;;;6.50;4.03;;;1.90;95.90;;;;;;2090150;28;20426;-95
2021/12/07 01:28:50;;;;;;;5.75;4.13;;;1.90;95.90;;;;;;2074091;28;20432;-94
2021/12/07 01:30:09;;;;;;;6.03;4.25;;;2.00;95.90;;;;;;2073487;28;20116;-94
2021/12/07 01:31:30;;;;;;;6.47;4.30;;;2.00;95.90;;;;;;2083712;28;20044;-94
2021/12/07 01:32:46;;;;;;;7.10;4.50;;;2.00;95.90;;;;;;2085960;28;20037;-94
2021/12/07 01:34:08;;;;;;;6.18;4.10;;;2.00;95.90;;;;;;2078399;28;20038;-96
2021/12/07 01:38:17;;;;;;;6.13;4.28;;;1.90;95.80;;;;;;2079437;28;20037;-96
2021/12/07 01:44:30;;;;;;;6.50;4.18;;;1.90;95.90;;;;;;2086268;28;20025;-95
2021/12/07 01:47:39;;;;;;;6.32;4.13;;;1.90;95.90;;;;;;2084736;28;20048;-95
2021/12/07 01:59:42;;;;;;;5.80;4.00;;;2.00;95.90;;;;;;2090022;28;20030;-96
2021/12/07 02:00:45;;;;;;;6.72;4.63;;;1.90;95.90;;;;;;2069149;28;20046;-95
2021/12/07 02:01:46;;;;;;;5.85;4.10;;;2.00;95.90;;;;;;2066925;28;20062;-96
2021/12/07 02:02:48;;;;;;;6.40;4.28;;;2.00;95.90;;;;;;2073734;28;20093;-95
2021/12/07 02:03:49;;;;;;;6.82;4.57;;;2.00;96.00;;;;;;2082722;28;20045;-84
2021/12/07 02:04:50;;;;;;;6.95;4.72;;;2.00;96.00;;;;;;2082899;28;20072;-90
2021/12/07 02:05:51;;;;;;;6.63;4.63;;;2.00;96.00;;;;;;2092114;28;20013;-92
2021/12/07 02:06:52;;;;;;;6.55;4.43;;;2.00;96.00;;;;;;2100102;28;20020;-93
2021/12/07 02:07:53;;;;;;;7.38;4.97;;;2.00;96.00;;;;;;2098568;28;20001;-79
2021/12/07 02:08:54;;;;;;;7.10;4.70;;;2.00;96.00;;;;;;2099769;28;20025;-91
2021/12/07 02:09:58;;;;;;;7.65;5.10;;;2.00;96.00;;;;;;2100042;28;20025;-88
2021/12/07 02:11:01;;;;;;;6.57;4.82;;;2.00;96.00;;;;;;2095664;28;20017;-94
2021/12/07 02:12:06;;;;;;;7.13;4.95;;;2.00;96.00;;;;;;2071450;28;20508;-96
2021/12/07 02:13:20;;;;;;;7.03;4.75;;;2.00;96.00;;;;;;2074820;28;20085;-95
2021/12/07 02:14:21;;;;;;;7.57;4.93;;;2.00;96.00;;;;;;2080696;28;20030;-96
2021/12/07 02:15:24;;;;;;;8.15;4.93;;;2.10;96.00;;;;;;2082874;28;20021;-95
2021/12/07 02:16:29;;;;;;;7.03;4.80;;;2.00;96.00;;;;;;2081657;28;20508;-95
2021/12/07 02:17:33;;;;;;;7.13;5.07;;;2.00;95.90;;;;;;2076451;28;20025;-94
2021/12/07 02:18:34;;;;;;;7.57;5.20;;;2.00;96.00;;;;;;2082882;28;20025;-94
2021/12/07 02:19:36;;;;;;;7.57;5.57;;;2.10;96.00;;;;;;2081497;28;20068;-95
2021/12/07 02:20:37;;;;;;;8.13;5.13;;;2.10;96.00;;;;;;2078380;28;20507;-95
2021/12/07 02:21:37;;;;;;;7.95;5.65;;;2.10;96.00;;;;;;2075969;28;20063;-96
2021/12/07 02:22:38;;;;;;;7.32;5.28;;;2.10;96.00;;;;;;2079441;28;20087;-96
2021/12/07 02:23:39;;;;;;;7.47;5.43;;;2.10;96.00;;;;;;2065271;28;20121;-96
2021/12/07 02:24:40;;;;;;;7.57;5.68;;;2.10;96.00;;;;;;2068709;28;20030;-96
2021/12/07 02:25:41;;;;;;;8.38;5.88;;;2.10;96.00;;;;;;2081869;28;20048;-96
2021/12/07 02:26:42;;;;;;;7.45;5.53;;;2.10;96.00;;;;;;2058240;28;20428;-96
2021/12/07 02:27:45;;;;;;;8.20;5.70;;;2.10;96.00;;;;;;2065542;28;20042;-88
2021/12/07 02:28:49;;;;;;;8.05;5.72;;;2.10;96.00;;;;;;2074718;28;20007;-95
2021/12/07 02:29:50;;;;;;;7.95;5.75;;;2.10;96.00;;;;;;2067630;28;20011;-96
2021/12/07 02:30:50;;;;;;;7.90;5.72;;;2.10;96.00;;;;;;2065119;28;20081;-95
2021/12/07 02:31:54;;;;;;;8.15;5.55;;;2.10;96.00;;;;;;2061062;28;20038;-96
2021/12/07 02:32:55;;;;;;;8.30;6.00;;;2.10;96.00;;;;;;2080626;28;20030;-95
2021/12/07 02:33:56;;;;;;;8.95;6.05;;;2.10;96.00;;;;;;2079986;28;20426;-96
2021/12/07 02:34:59;;;;;;;8.25;6.00;;;2.10;96.00;;;;;;2069758;28;20072;-95
2021/12/07 02:36:00;;;;;;;8.68;5.97;;;2.10;96.00;;;;;;2076133;28;20037;-96
2021/12/07 02:37:01;;;;;;;8.82;5.93;;;2.10;96.00;;;;;;2082591;28;20071;-96
2021/12/07 02:38:03;;;;;;;9.55;6.28;;;2.10;96.00;;;;;;2075855;28;20022;-96
2021/12/07 02:39:06;;;;;;;8.63;6.15;;;2.00;96.00;;;;;;2068200;28;20027;-96
2021/12/07 02:40:08;;;;;;;9.25;6.15;;;2.00;96.00;;;;;;2077629;28;20029;-96
2021/12/07 02:41:09;;;;;;;8.27;5.97;;;2.00;96.00;;;;;;2081362;28;20029;-95
2021/12/07 02:42:10;;;;;;;8.70;6.00;;;2.00;96.00;;;;;;2073731;28;20050;-96
2021/12/07 02:43:11;;;;;;;8.27;5.97;;;2.00;96.00;;;;;;2072381;28;20060;-95
2021/12/07 02:44:12;;;;;;;9.48;6.63;;;2.00;96.00;;;;;;2064741;28;20145;-94
2021/12/07 02:45:13;;;;;;;8.68;6.03;;;2.00;96.10;;;;;;2056340;28;20152;-95
2021/12/07 02:46:14;;;;;;;8.43;6.20;;;2.00;96.10;;;;;;2063704;28;20037;-94
2021/12/07 02:47:15;;;;;;;7.78;5.95;;;2.00;96.10;;;;;;2065508;28;20033;-96
2021/12/07 02:48:16;;;;;;;8.70;6.07;;;2.00;96.10;;;;;;2074672;28;20025;-96
2021/12/07 02:49:19;;;;;;;8.65;6.30;;;2.00;96.10;;;;;;2080334;28;20448;-96
2021/12/07 02:50:20;;;;;;;8.73;5.93;;;2.00;96.10;;;;;;2074885;28;20069;-96
2021/12/07 02:51:21;;;;;;;8.23;6.22;;;2.00;96.10;;;;;;2067283;28;20093;-96
2021/12/07 02:52:21;;;;;;;8.35;6.07;;;2.00;96.10;;;;;;2074699;28;20076;-96
2021/12/07 02:53:25;;;;;;;8.55;6.10;;;1.90;96.10;;;;;;2056267;28;20030;-96
2021/12/07 02:54:26;;;;;;;8.20;5.85;;;2.00;96.20;;;;;;2067498;28;20041;-95
2021/12/07 02:55:27;;;;;;;8.52;6.40;;;2.00;96.20;;;;;;2065970;28;20030;-96
2021/12/07 02:56:28;;;;;;;8.10;5.72;;;2.00;96.20;;;;;;2069679;28;20033;-95
2021/12/07 02:57:30;;;;;;;8.38;5.97;;;2.00;96.20;;;;;;2075102;28;20064;-96
2021/12/07 02:58:31;;;;;;;8.50;5.68;;;1.90;96.20;;;;;;2067380;28;20034;-94
2021/12/07 02:59:33;;;;;;;9.27;6.50;;;1.90;96.20;;;;;;2066800;28;20022;-95
2021/12/07 03:00:42;;;;;;;9.68;6.57;;;1.90;96.10;;;;;;2075381;28;20026;-96
2021/12/07 03:01:48;;;;;;;9.02;6.15;;;1.90;96.10;;;;;;2077761;28;20480;-96
2021/12/07 03:03:01;;;;;;;9.00;6.28;;;1.90;96.20;;;;;;2068210;28;20053;-94
2021/12/07 03:04:15;;;;;;;9.35;6.47;;;1.90;96.20;;;;;;2067238;28;20070;-94
2021/12/07 03:08:25;;;;;;;8.63;5.88;;;1.80;96.20;;;;;;2085029;28;20034;-96
2021/12/07 03:26:48;;;;;;;9.32;6.13;;;1.70;96.20;;;;;;2076347;28;20058;-95
2021/12/07 03:27:49;;;;;;;10.00;6.97;;;1.70;96.20;;;;;;2077325;28;20026;-93
2021/12/07 03:28:51;;;;;;;9.20;6.22;;;1.70;96.20;;;;;;2083051;28;20135;-92
2021/12/07 03:29:52;;;;;;;9.43;6.32;;;1.70;96.20;;;;;;2082512;28;20030;-94
2021/12/07 03:30:53;;;;;;;10.25;6.65;;;1.70;96.20;;;;;;2072524;28;20108;-94
2021/12/07 03:31:54;;;;;;;8.88;6.22;;;1.70;96.20;;;;;;2083090;28;20033;-94
2021/12/07 03:32:54;;;;;;;9.00;6.90;;;1.70;96.20;;;;;;2087098;28;20060;-94
2021/12/07 03:33:58;;;;;;;9.73;7.18;;;1.70;96.20;;;;;;2081888;28;20451;-93
2021/12/07 03:34:59;;;;;;;9.57;6.82;;;1.60;96.20;;;;;;2089635;28;20418;-93
2021/12/07 03:36:00;;;;;;;9.73;6.85;;;1.60;96.20;;;;;;2074597;28;20041;-96
2021/12/07 03:37:01;;;;;;;10.65;7.60;;;1.60;96.20;;;;;;2080858;28;20028;-95
2021/12/07 03:38:04;;;;;;;10.48;7.38;;;1.60;96.30;;;;;;2074766;28;20500;-94
2021/12/07 03:39:06;;;;;;;9.55;6.82;;;1.60;96.30;;;;;;2067086;28;20053;-94
2021/12/07 03:40:09;;;;;;;11.32;7.50;;;1.60;96.30;;;;;;2083066;28;20025;-94
2021/12/07 03:41:10;;;;;;;9.25;6.55;;;1.60;96.30;;;;;;2091170;28;20037;-94
2021/12/07 03:42:11;;;;;;;10.73;7.57;;;1.60;96.30;;;;;;2082810;28;20038;-94
2021/12/07 03:43:13;;;;;;;10.20;7.18;;;1.60;96.30;;;;;;2082276;28;20021;-95
2021/12/07 03:44:13;;;;;;;10.50;7.63;;;1.60;96.30;;;;;;2090854;28;20116;-94
2021/12/07 03:45:15;;;;;;;10.35;7.53;;;1.60;96.40;;;;;;2088935;28;20044;-96
2021/12/07 03:46:16;;;;;;;10.90;7.65;;;1.60;96.40;;;;;;2082869;28;20037;-94
2021/12/07 03:47:17;;;;;;;10.70;8.00;;;1.60;96.60;;;;;;2082750;28;20123;-94
2021/12/07 03:48:19;;;;;;;11.77;7.65;;;1.60;96.40;;;;;;2091024;28;20511;-95
2021/12/07 03:49:20;;;;;;;11.63;7.65;;;1.60;96.40;;;;;;2090947;28;20093;-94
2021/12/07 03:50:22;;;;;;;11.55;7.88;;;1.60;96.40;;;;;;2075409;28;20086;-95
2021/12/07 03:51:22;;;;;;;11.38;8.00;;;1.60;96.40;;;;;;2083254;28;20021;-94
2021/12/07 03:52:23;;;;;;;10.30;7.63;;;1.60;96.70;;;;;;2073548;28;20045;-95
2021/12/07 03:53:24;;;;;;;10.02;7.40;;;1.60;96.40;;;;;;2084410;28;20041;-94
2021/12/07 03:54:24;;;;;;;11.15;8.13;;;1.60;96.40;;;;;;2100154;28;20021;-94
2021/12/07 03:55:25;;;;;;;12.43;8.30;;;1.60;96.40;;;;;;2101360;28;20052;-87
2021/12/07 03:56:25;;;;;;;11.35;7.80;;;1.60;96.40;;;;;;2083640;28;20010;-94
2021/12/07 03:57:26;;;;;;;10.88;8.07;;;1.60;96.40;;;;;;2083894;28;20090;-87
2021/12/07 03:58:27;;;;;;;11.13;7.80;;;1.60;96.40;;;;;;2084953;28;20038;-84
2021/12/07 03:59:27;;;;;;;10.95;7.53;;;1.60;96.40;;;;;;2084526;28;20030;-86
2021/12/07 04:00:30;;;;;;;10.45;7.78;;;1.60;96.40;;;;;;2092667;28;20033;-94
2021/12/07 04:01:31;;;;;;;11.43;7.63;;;1.60;96.30;;;;;;2076372;28;20048;-85
2021/12/07 04:02:36;;;;;;;11.43;7.35;;;1.60;96.30;;;;;;2069795;28;20202;-94
2021/12/07 04:03:38;;;;;;;10.73;7.57;;;1.60;96.30;;;;;;2089650;28;20120;-95
2021/12/07 04:04:39;;;;;;;11.32;7.75;;;1.60;96.30;;;;;;2074652;28;20412;-95
2021/12/07 04:05:47;;;;;;;10.82;7.18;;;1.60;96.30;;;;;;2082468;28;20043;-94
2021/12/07 04:06:47;;;;;;;10.15;7.22;;;1.60;96.30;;;;;;2091187;28;20025;-94
2021/12/07 04:07:49;;;;;;;9.90;7.18;;;1.60;96.60;;;;;;2089759;28;20025;-95
2021/12/07 04:08:50;;;;;;;9.38;6.65;;;1.60;96.40;;;;;;2081722;28;20529;-96
2021/12/07 04:09:51;;;;;;;10.60;7.25;;;1.60;96.40;;;;;;2082820;28;20124;-95
2021/12/07 04:10:54;;;;;;;10.90;7.35;;;1.60;96.40;;;;;;2081183;28;20021;-94
2021/12/07 04:11:55;;;;;;;10.77;7.25;;;1.60;96.40;;;;;;2074162;28;20033;-94
2021/12/07 04:12:55;;;;;;;10.93;7.32;;;1.60;96.40;;;;;;2082223;28;20504;-94
2021/12/07 04:13:56;;;;;;;10.90;7.45;;;1.60;96.40;;;;;;2086889;28;20502;-94
2021/12/07 04:14:57;;;;;;;12.35;7.53;;;1.60;96.50;;;;;;2084519;28;20079;-95
2021/12/07 04:15:59;;;;;;;11.30;7.05;;;1.60;96.40;;;;;;2082496;28;20041;-96
2021/12/07 04:16:59;;;;;;;10.43;7.05;;;1.60;96.40;;;;;;2090911;28;20048;-95
2021/12/07 04:18:01;;;;;;;12.27;7.82;;;1.60;96.40;;;;;;2090505;28;20421;-94
2021/12/07 04:19:01;;;;;;;9.98;7.00;;;1.60;96.40;;;;;;2082720;28;20017;-95
2021/12/07 04:20:08;;;;;;;10.75;7.18;;;1.60;96.40;;;;;;2082387;28;20025;-96
2021/12/07 04:21:09;;;;;;;9.68;6.72;;;1.60;96.40;;;;;;2075248;28;20044;-94
2021/12/07 04:22:10;;;;;;;9.95;6.93;;;1.60;96.40;;;;;;2079031;28;20026;-95
2021/12/07 04:23:10;;;;;;;10.25;7.57;;;1.60;96.40;;;;;;2076113;28;20033;-94
2021/12/07 04:24:11;;;;;;;10.38;7.30;;;1.60;96.40;;;;;;2092350;28;20552;-93
2021/12/07 04:25:14;;;;;;;10.45;7.28;;;1.60;96.40;;;;;;2076506;28;20122;-94
2021/12/07 04:26:15;;;;;;;9.48;6.80;;;1.60;96.40;;;;;;2073751;28;21043;-96
2021/12/07 04:27:16;;;;;;;10.32;7.20;;;1.60;96.40;;;;;;2074604;28;20045;-94
2021/12/07 04:28:17;;;;;;;11.18;7.18;;;1.60;96.50;;;;;;2080669;28;20125;-95
2021/12/07 04:29:17;;;;;;;10.15;7.00;;;1.60;96.40;;;;;;2073457;28;20030;-94
2021/12/07 04:30:24;;;;;;;9.95;6.70;;;1.60;96.40;;;;;;2070814;28;20511;-94
2021/12/07 04:31:25;;;;;;;10.80;7.30;;;1.60;96.50;;;;;;2073607;28;20029;-95
2021/12/07 04:32:26;;;;;;;10.65;6.70;;;1.60;96.50;;;;;;2082975;28;20025;-95
2021/12/07 04:33:29;;;;;;;9.85;6.97;;;1.60;96.50;;;;;;2082779;28;20038;-95
2021/12/07 04:34:29;;;;;;;10.88;6.93;;;1.60;96.40;;;;;;2089707;28;20033;-96
2021/12/07 04:35:30;;;;;;;8.82;6.20;;;1.60;96.40;;;;;;2089970;28;20028;-94
2021/12/07 04:36:31;;;;;;;9.75;6.93;;;1.60;96.40;;;;;;2090790;28;20115;-94
2021/12/07 04:37:33;;;;;;;9.57;6.03;;;1.60;96.40;;;;;;2093523;28;20033;-95
2021/12/07 04:38:34;;;;;;;10.23;6.38;;;1.60;96.40;;;;;;2090442;28;20021;-95
2021/12/07 04:39:35;;;;;;;8.52;5.93;;;1.60;96.40;;;;;;2081873;28;20064;-94
2021/12/07 04:40:35;;;;;;;9.82;6.28;;;1.60;96.40;;;;;;2082784;28;20140;-95
2021/12/07 04:41:36;;;;;;;9.13;6.03;;;1.70;96.40;;;;;;2081894;28;20041;-94
2021/12/07 04:42:37;;;;;;;9.90;6.53;;;1.70;96.40;;;;;;2082665;28;20056;-94
2021/12/07 04:43:39;;;;;;;9.00;6.10;;;1.70;96.40;;;;;;2082396;28;20030;-94
2021/12/07 04:44:48;;;;;;;8.73;5.65;;;1.70;96.40;;;;;;2086180;28;20029;-95
2021/12/07 04:46:01;;;;;;;9.55;5.45;;;1.70;96.40;;;;;;2083632;28;20044;-95
2021/12/07 04:47:13;;;;;;;8.82;5.20;;;1.70;96.50;;;;;;2083919;28;20036;-96
2021/12/07 04:50:42;;;;;;;8.02;4.97;;;1.70;96.40;;;;;;2089731;28;20483;-95
2021/12/07 04:58:01;;;;;;;8.10;4.60;;;1.70;96.30;;;;;;2083882;28;20051;-95
2021/12/07 04:59:04;;;;;;;7.53;4.55;;;1.70;96.30;;;;;;2087122;28;20025;-95
2021/12/07 05:00:08;;;;;;;7.28;4.10;;;1.70;96.30;;;;;;2082752;28;20071;-94
2021/12/07 05:01:11;;;;;;;8.15;4.35;;;1.70;96.30;;;;;;2083036;28;20013;-94
2021/12/07 05:02:12;;;;;;;7.80;4.38;;;1.70;96.40;;;;;;2089926;28;20509;-93
2021/12/07 05:03:14;;;;;;;7.57;4.38;;;1.70;96.40;;;;;;2089998;28;20092;-95
2021/12/07 05:04:22;;;;;;;6.85;4.28;;;1.60;96.40;;;;;;2092148;28;20522;-94
2021/12/07 05:05:27;;;;;;;7.15;4.15;;;1.60;96.40;;;;;;2090988;28;20056;-94
2021/12/07 05:06:31;;;;;;;6.55;3.78;;;1.70;96.40;;;;;;2089433;28;20533;-95
2021/12/07 05:07:37;;;;;;;8.10;3.85;;;1.70;96.40;;;;;;2098350;28;20498;-96
2021/12/07 05:08:48;;;;;;;8.43;4.43;;;1.70;96.40;;;;;;2091847;28;20025;-95
2021/12/07 05:11:22;;;;;;;6.97;4.35;;;1.60;96.40;;;;;;2076704;28;20030;-94
2021/12/07 05:13:36;;;;;;;6.35;3.55;;;1.60;96.40;;;;;;2080351;28;20029;-95
2021/12/07 05:14:34;;;;;;;7.28;4.00;;;1.60;96.40;;;;;;2088414;28;20135;-94
2021/12/07 05:19:04;;;;;;;5.60;3.35;;;1.60;96.50;;;;;;2091813;28;20028;-94
2021/12/07 05:23:56;;;;;;;5.95;3.10;;;1.60;96.40;;;;;;2073898;28;20042;-93
2021/12/07 05:38:01;;;;;;;4.55;2.50;;;1.90;96.30;;;;;;2090098;28;20032;-95
2021/12/07 05:39:02;;;;;;;6.22;2.67;;;1.80;96.30;;;;;;2090315;28;20118;-96
2021/12/07 05:40:10;;;;;;;6.13;2.38;;;1.80;96.30;;;;;;2089760;28;20591;-95
2021/12/07 05:41:11;;;;;;;5.00;2.72;;;1.90;96.30;;;;;;2071333;28;20030;-95
2021/12/07 05:42:12;;;;;;;7.43;2.75;;;1.90;96.30;;;;;;2089267;28;20056;-95
2021/12/07 05:43:13;;;;;;;4.78;2.40;;;1.90;96.60;;;;;;2099566;28;20001;-87
2021/12/07 05:44:13;;;;;;;6.28;2.65;;;1.90;96.30;;;;;;2100160;28;20009;-91
2021/12/07 05:45:21;;;;;;;4.97;2.28;;;1.90;96.30;;;;;;2098718;28;20029;-95
2021/12/07 05:46:22;;;;;;;4.43;2.47;;;1.90;96.30;;;;;;2093141;28;20036;-85
2021/12/07 05:47:23;;;;;;;5.63;2.70;;;1.90;96.40;;;;;;2083766;28;20041;-88
2021/12/07 05:48:24;;;;;;;5.75;2.60;;;1.90;96.40;;;;;;2084421;28;20018;-82
2021/12/07 05:49:25;;;;;;;5.60;2.60;;;1.90;96.40;;;;;;2096363;28;20029;-95
2021/12/07 05:50:28;;;;;;;5.57;2.58;;;1.90;96.40;;;;;;2097730;28;20128;-83
2021/12/07 05:51:28;;;;;;;5.32;2.40;;;1.90;96.40;;;;;;2091570;28;20017;-95
2021/12/07 05:52:29;;;;;;;6.28;2.45;;;1.90;96.40;;;;;;2098095;28;20052;-96
2021/12/07 05:53:30;;;;;;;4.63;2.20;;;1.90;96.40;;;;;;2099651;28;20324;-87
2021/12/07 05:54:30;;;;;;;4.75;2.10;;;1.90;96.40;;;;;;2098224;28;20012;-95
2021/12/07 05:55:32;;;;;;;5.57;2.58;;;1.90;96.40;;;;;;2096401;28;20025;-95
2021/12/07 05:56:33;;;;;;;5.53;2.03;;;1.80;96.40;;;;;;2098316;28;20020;-95
2021/12/07 05:57:34;;;;;;;6.85;2.60;;;1.90;96.40;;;;;;2099174;28;20040;-95
2021/12/07 05:58:34;;;;;;;5.70;2.53;;;1.90;96.40;;;;;;2083274;28;20049;-82
2021/12/07 05:59:35;;;;;;;4.45;2.05;;;1.90;96.40;;;;;;2080150;28;20034;-94
2021/12/07 06:00:39;;;;;;;4.95;2.40;;;1.80;96.40;;;;;;2086871;28;20432;-95
2021/12/07 06:01:40;;;;;;;4.38;2.35;;;1.90;96.40;;;;;;2083560;28;20092;-95
2021/12/07 06:02:40;;;;;;;6.55;2.50;;;1.80;96.40;;;;;;2075198;28;20034;-96
2021/12/07 06:03:41;;;;;;;4.93;2.58;;;1.80;96.40;;;;;;2085295;28;20137;-95
2021/12/07 06:04:42;;;;;;;5.13;2.60;;;1.80;96.40;;;;;;2068488;28;20109;-94
2021/12/07 06:05:43;;;;;;;7.00;2.72;;;1.80;96.40;;;;;;2066477;28;20472;-95
2021/12/07 06:06:44;;;;;;;6.13;2.38;;;1.90;96.70;;;;;;2060647;28;20039;-91
2021/12/07 06:07:44;;;;;;;9.07;2.47;;;1.90;96.40;;;;;;2081321;28;20508;-95
2021/12/07 06:08:45;;;;;;;6.80;2.65;;;1.90;96.40;;;;;;2090287;28;20036;-95
2021/12/07 06:09:46;;;;;;;5.22;2.60;;;1.80;96.40;;;;;;2091814;28;20052;-95
2021/12/07 06:10:47;;;;;;;6.10;2.58;;;1.80;96.70;;;;;;2089910;28;20033;-90
2021/12/07 06:11:50;;;;;;;4.90;2.47;;;1.90;96.40;;;;;;2090136;28;20542;-94
2021/12/07 06:12:52;;;;;;;7.05;2.85;;;1.90;96.40;;;;;;2074100;28;20034;-94
2021/12/07 06:13:52;;;;;;;4.72;2.53;;;1.90;96.40;;;;;;2079248;28;20029;-95
2021/12/07 06:14:55;;;;;;;5.75;2.80;;;1.90;96.40;;;;;;2081942;28;20028;-94
2021/12/07 06:15:57;;;;;;;6.32;2.85;;;1.90;96.40;;;;;;2073954;28;20057;-93
2021/12/07 06:16:58;;;;;;;7.03;3.25;;;1.90;96.40;;;;;;2081649;28;20097;-94
2021/12/07 06:17:59;;;;;;;7.55;3.05;;;1.90;96.40;;;;;;2087423;28;20535;-92
2021/12/07 06:18:59;;;;;;;6.95;2.97;;;1.90;96.40;;;;;;2073649;28;20034;-96
2021/12/07 06:20:00;;;;;;;8.30;3.33;;;1.90;96.50;;;;;;2081090;28;20029;-95
2021/12/07 06:21:02;;;;;;;7.65;3.17;;;1.90;96.50;;;;;;2085096;28;20124;-96
2021/12/07 06:22:05;;;;;;;8.07;3.33;;;1.90;96.40;;;;;;2081638;28;20021;-94
2021/12/07 06:23:05;;;;;;;8.25;3.72;;;1.90;96.40;;;;;;2074239;28;20059;-92
2021/12/07 06:24:06;;;;;;;8.32;3.70;;;1.90;96.50;;;;;;2073595;28;20495;-94
2021/12/07 06:25:08;;;;;;;9.05;4.00;;;1.90;96.50;;;;;;2073093;28;20050;-94
2021/12/07 06:26:09;;;;;;;8.95;3.70;;;1.90;96.50;;;;;;2074284;28;20030;-94
2021/12/07 06:27:10;;;;;;;8.93;3.47;;;1.90;96.50;;;;;;2064552;28;20042;-94
2021/12/07 06:28:10;;;;;;;7.82;3.50;;;2.00;96.50;;;;;;2073989;28;20033;-94
2021/12/07 06:29:13;;;;;;;9.27;4.38;;;1.90;96.40;;;;;;2079233;28;20513;-95
2021/12/07 06:30:14;;;;;;;9.10;3.88;;;1.90;96.40;;;;;;2090143;28;20094;-96
2021/12/07 06:31:14;;;;;;;8.10;4.15;;;2.00;96.40;;;;;;2081977;28;20081;-95
2021/12/07 06:32:15;;;;;;;11.50;4.05;;;2.00;96.70;;;;;;2081572;28;20020;-94
2021/12/07 06:33:20;;;;;;;12.73;3.60;;;2.00;96.40;;;;;;2089987;28;20399;-95
2021/12/07 06:34:21;;;;;;;9.65;4.10;;;2.00;96.40;;;;;;2089066;28;20470;-94
2021/12/07 06:35:21;;;;;;;8.43;4.05;;;2.00;96.40;;;;;;2089063;28;20131;-93
2021/12/07 06:36:24;;;;;;;8.43;4.15;;;2.00;96.40;;;;;;2089949;28;20119;-95
2021/12/07 06:37:25;;;;;;;10.40;4.38;;;2.00;96.40;;;;;;2089628;28;20521;-94
2021/12/07 06:38:27;;;;;;;9.27;4.35;;;2.00;96.40;;;;;;2089231;28;20032;-94
2021/12/07 06:39:28;;;;;;;10.25;4.68;;;2.00;96.40;;;;;;2090548;28;20037;-92
2021/12/07 06:40:29;;;;;;;12.90;4.20;;;2.00;96.40;;;;;;2081777;28;20415;-91
2021/12/07 06:41:30;;;;;;;9.68;4.40;;;2.00;96.40;;;;;;2065020;28;20042;-91
2021/12/07 06:42:30;;;;;;;8.80;4.03;;;2.10;96.40;;;;;;2064181;28;20031;-92
2021/12/07 06:43:31;;;;;;;9.75;4.30;;;2.10;96.40;;;;;;2065145;28;20119;-91
2021/12/07 06:44:32;;;;;;;9.65;4.25;;;2.00;96.40;;;;;;2068542;28;20086;-92
2021/12/07 06:45:33;;;;;;;8.90;4.15;;;2.10;96.40;;;;;;2089067;28;20060;-94
2021/12/07 06:46:33;;;;;;;9.15;4.07;;;2.10;96.40;;;;;;2088185;28;20040;-93
2021/12/07 06:47:34;;;;;;;10.27;3.88;;;2.10;96.40;;;;;;2088593;28;20507;-94
2021/12/07 06:48:35;;;;;;;9.50;4.45;;;2.10;96.40;;;;;;2090105;28;20444;-90
2021/12/07 06:49:35;;;;;;;8.88;3.90;;;2.10;96.40;;;;;;2090429;28;20033;-93
2021/12/07 06:50:36;;;;;;;10.85;4.15;;;2.10;96.60;;;;;;2090505;28;20452;-94
2021/12/07 06:51:37;;;;;;;9.18;3.97;;;2.10;96.30;;;;;;2091068;28;20025;-94
2021/12/07 06:52:38;;;;;;;7.40;3.60;;;2.10;96.30;;;;;;2090218;28;20055;-96
2021/12/07 06:53:39;;;;;;;7.20;3.90;;;2.20;96.30;;;;;;2081384;28;20025;-88
2021/12/07 06:54:40;;;;;;;10.55;3.70;;;2.10;96.30;;;;;;2080543;28;20022;-87
2021/12/07 06:55:42;;;;;;;8.38;3.70;;;2.10;96.30;;;;;;2088532;28;20025;-92
2021/12/07 06:56:43;;;;;;;8.25;3.38;;;2.10;96.30;;;;;;2080131;28;20361;-91
2021/12/07 06:57:44;;;;;;;7.40;3.30;;;2.10;96.30;;;;;;2080279;28;20032;-92
2021/12/07 06:58:45;;;;;;;9.00;3.53;;;2.10;96.60;;;;;;2080836;28;20049;-92